createdAt,value
2023-04-09T00:00:17.667Z,11.20
2023-04-09T00:02:48.986Z,11.30
2023-04-09T00:05:21.949Z,11.20
2023-04-09T00:07:52.639Z,11.40
2023-04-09T00:10:23.721Z,11.40
2023-04-09T00:12:54.444Z,11.50
2023-04-09T00:15:31.147Z,11.30
2023-04-09T00:18:03.073Z,11.30
2023-04-09T00:20:36.379Z,11.10
2023-04-09T00:23:07.142Z,11.10
2023-04-09T00:25:38.588Z,11.20
2023-04-09T00:28:09.709Z,11.00
2023-04-09T00:30:40.420Z,11.00
2023-04-09T00:33:11.516Z,10.90
2023-04-09T00:35:43.886Z,10.90
2023-04-09T00:38:15.019Z,10.90
2023-04-09T00:40:46.106Z,10.80
2023-04-09T00:43:16.966Z,10.90
2023-04-09T00:45:47.990Z,10.90
2023-04-09T00:48:19.894Z,10.90
2023-04-09T00:50:52.699Z,10.90
2023-04-09T00:53:24.106Z,10.90
2023-04-09T00:55:55.885Z,10.80
2023-04-09T00:58:26.599Z,10.80
2023-04-09T01:00:57.310Z,10.90
2023-04-09T01:03:28.662Z,11.00
2023-04-09T01:06:08.515Z,11.00
2023-04-09T01:08:46.869Z,11.00
2023-04-09T01:11:27.892Z,11.10
2023-04-09T01:14:08.273Z,11.20
2023-04-09T01:16:43.389Z,11.20
2023-04-09T01:19:25.471Z,11.20
2023-04-09T01:22:00.463Z,11.20
2023-04-09T01:24:46.862Z,11.20
2023-04-09T01:27:18.694Z,11.20
2023-04-09T01:29:54.927Z,11.30
2023-04-09T01:32:27.348Z,11.30
2023-04-09T01:35:00.063Z,11.30
2023-04-09T01:37:31.277Z,11.10
2023-04-09T01:40:02.828Z,11.10
2023-04-09T01:42:34.016Z,11.00
2023-04-09T01:45:09.014Z,10.90
2023-04-09T01:47:41.319Z,11.00
2023-04-09T01:50:12.918Z,10.90
2023-04-09T01:52:43.869Z,10.80
2023-04-09T01:55:14.877Z,10.80
2023-04-09T01:57:45.798Z,10.80
2023-04-09T02:00:19.174Z,10.80
2023-04-09T02:02:57.226Z,10.70
2023-04-09T02:05:31.868Z,10.70
2023-04-09T02:08:05.717Z,10.70
2023-04-09T02:10:38.136Z,10.70
2023-04-09T02:13:11.810Z,10.60
2023-04-09T02:15:45.915Z,10.60
2023-04-09T02:18:28.339Z,10.60
2023-04-09T02:21:00.875Z,10.60
2023-04-09T02:23:33.203Z,10.60
2023-04-09T02:26:04.520Z,10.50
2023-04-09T02:28:35.964Z,10.50
2023-04-09T02:31:09.275Z,10.50
2023-04-09T02:33:40.437Z,10.50
2023-04-09T02:36:14.885Z,10.50
2023-04-09T02:38:46.320Z,10.40
2023-04-09T02:41:17.115Z,10.40
2023-04-09T02:43:48.888Z,10.40
2023-04-09T02:46:22.633Z,10.30
2023-04-09T02:48:53.560Z,10.30
2023-04-09T02:51:24.972Z,10.30
2023-04-09T02:53:56.263Z,10.30
2023-04-09T02:56:27.544Z,10.30
2023-04-09T02:58:58.782Z,10.30
2023-04-09T03:01:32.873Z,10.20
2023-04-09T03:04:04.987Z,10.20
2023-04-09T03:06:36.446Z,10.20
2023-04-09T03:09:07.720Z,10.20
2023-04-09T03:11:38.446Z,10.20
2023-04-09T03:14:09.880Z,10.20
2023-04-09T03:16:43.141Z,10.20
2023-04-09T03:19:14.106Z,10.10
2023-04-09T03:21:45.608Z,10.20
2023-04-09T03:24:16.403Z,10.20
2023-04-09T03:26:48.009Z,10.10
2023-04-09T03:29:18.765Z,10.20
2023-04-09T03:31:52.063Z,10.20
2023-04-09T03:34:22.899Z,10.20
2023-04-09T03:36:54.568Z,10.20
2023-04-09T03:39:25.902Z,10.20
2023-04-09T03:41:59.467Z,10.20
2023-04-09T03:44:30.771Z,10.20
2023-04-09T03:47:07.525Z,10.10
2023-04-09T03:49:39.526Z,10.10
2023-04-09T03:52:11.104Z,10.00
2023-04-09T03:54:41.971Z,10.00
2023-04-09T03:57:12.895Z,9.90
2023-04-09T03:59:43.726Z,9.90
2023-04-09T04:02:16.689Z,9.90
2023-04-09T04:04:48.805Z,9.90
2023-04-09T04:07:19.636Z,9.80
2023-04-09T04:09:50.705Z,9.90
2023-04-09T04:12:21.549Z,9.90
2023-04-09T04:14:55.080Z,9.80
2023-04-09T04:17:28.598Z,9.80
2023-04-09T04:19:59.390Z,9.70
2023-04-09T04:22:30.798Z,9.70
2023-04-09T04:25:01.481Z,9.70
2023-04-09T04:27:32.647Z,9.70
2023-04-09T04:30:03.693Z,9.60
2023-04-09T04:32:36.444Z,9.60
2023-04-09T04:35:08.004Z,9.70
2023-04-09T04:37:39.185Z,9.70
2023-04-09T04:40:11.406Z,9.70
2023-04-09T04:42:42.612Z,9.70
2023-04-09T04:45:14.516Z,9.60
2023-04-09T04:47:48.018Z,9.60
2023-04-09T04:50:18.868Z,9.60
2023-04-09T04:52:50.029Z,9.60
2023-04-09T04:55:21.712Z,9.60
2023-04-09T04:57:56.264Z,9.60
2023-04-09T05:00:27.680Z,9.60
2023-04-09T05:03:07.042Z,9.60
2023-04-09T05:05:38.046Z,9.60
2023-04-09T05:08:09.964Z,9.60
2023-04-09T05:10:43.495Z,9.60
2023-04-09T05:13:14.648Z,9.60
2023-04-09T05:15:47.360Z,9.60
2023-04-09T05:18:20.593Z,9.60
2023-04-09T05:20:52.230Z,9.60
2023-04-09T05:23:24.186Z,9.50
2023-04-09T05:25:55.603Z,9.50
2023-04-09T05:28:27.333Z,9.50
2023-04-09T05:30:59.483Z,9.50
2023-04-09T05:33:38.580Z,9.50
2023-04-09T05:36:10.909Z,9.50
2023-04-09T05:38:41.668Z,9.50
2023-04-09T05:41:12.671Z,9.40
2023-04-09T05:43:43.858Z,9.40
2023-04-09T05:46:15.027Z,9.30
2023-04-09T05:48:47.978Z,9.40
2023-04-09T05:51:18.798Z,9.40
2023-04-09T05:53:52.659Z,9.40
2023-04-09T05:56:25.004Z,9.40
2023-04-09T05:58:56.351Z,9.40
2023-04-09T06:01:28.163Z,9.40
2023-04-09T06:04:02.195Z,9.40
2023-04-09T06:06:33.686Z,9.40
2023-04-09T06:09:05.965Z,9.30
2023-04-09T06:11:37.342Z,9.30
2023-04-09T06:14:08.789Z,9.40
2023-04-09T06:16:39.754Z,9.30
2023-04-09T06:19:13.256Z,9.40
2023-04-09T06:21:44.859Z,9.40
2023-04-09T06:24:15.932Z,9.40
2023-04-09T06:26:46.933Z,9.30
2023-04-09T06:29:17.716Z,9.30
2023-04-09T06:31:49.258Z,9.30
2023-04-09T06:34:22.406Z,9.30
2023-04-09T06:36:54.322Z,9.30
2023-04-09T06:39:25.736Z,9.30
2023-04-09T06:41:56.931Z,9.30
2023-04-09T06:44:28.435Z,9.40
2023-04-09T06:46:59.624Z,9.40
2023-04-09T06:49:32.909Z,9.40
2023-04-09T06:52:04.233Z,9.50
2023-04-09T06:54:34.942Z,9.50
2023-04-09T06:57:06.315Z,9.40
2023-04-09T06:59:37.105Z,9.40
2023-04-09T07:02:08.135Z,9.50
2023-04-09T07:04:41.356Z,9.50
2023-04-09T07:07:12.135Z,9.50
2023-04-09T07:09:43.100Z,9.50
2023-04-09T07:12:14.749Z,9.50
2023-04-09T07:14:45.493Z,9.50
2023-04-09T07:17:16.695Z,9.50
2023-04-09T07:19:50.152Z,9.50
2023-04-09T07:22:22.195Z,9.40
2023-04-09T07:24:54.662Z,9.40
2023-04-09T07:27:26.926Z,9.40
2023-04-09T07:29:58.687Z,9.40
2023-04-09T07:32:30.549Z,9.40
2023-04-09T07:35:03.872Z,9.40
2023-04-09T07:37:35.002Z,9.40
2023-04-09T07:40:07.474Z,9.40
2023-04-09T07:42:40.227Z,9.40
2023-04-09T07:45:12.284Z,9.40
2023-04-09T07:47:43.628Z,9.30
2023-04-09T07:50:17.303Z,9.40
2023-04-09T07:52:48.380Z,9.40
2023-04-09T07:55:20.356Z,9.40
2023-04-09T07:57:52.713Z,9.40
2023-04-09T08:00:23.658Z,9.40
2023-04-09T08:02:55.101Z,9.40
2023-04-09T08:05:27.963Z,9.40
2023-04-09T08:08:00.493Z,9.30
2023-04-09T08:10:33.272Z,9.30
2023-04-09T08:13:04.386Z,9.40
2023-04-09T08:15:35.347Z,9.30
2023-04-09T08:18:06.935Z,9.30
2023-04-09T08:20:45.873Z,9.20
2023-04-09T08:23:17.249Z,9.20
2023-04-09T08:25:49.083Z,9.20
2023-04-09T08:28:20.165Z,9.20
2023-04-09T08:30:51.535Z,9.10
2023-04-09T08:33:22.728Z,9.10
2023-04-09T08:35:55.376Z,9.10
2023-04-09T08:38:26.816Z,9.10
2023-04-09T08:40:58.193Z,9.10
2023-04-09T08:43:52.511Z,9.10
2023-04-09T08:46:22.591Z,9.20
2023-04-09T08:48:55.026Z,9.20
2023-04-09T08:51:29.775Z,9.20
2023-04-09T08:54:04.049Z,9.10
2023-04-09T08:56:35.628Z,9.20
2023-04-09T08:59:07.897Z,9.20
2023-04-09T09:01:39.384Z,9.20
2023-04-09T09:04:11.550Z,9.20
2023-04-09T09:06:46.307Z,9.20
2023-04-09T09:09:20.352Z,9.20
2023-04-09T09:11:52.888Z,9.10
2023-04-09T09:14:24.986Z,9.20
2023-04-09T09:17:09.298Z,9.20
2023-04-09T09:19:40.872Z,9.10
2023-04-09T09:22:16.144Z,9.20
2023-04-09T09:24:50.805Z,9.20
2023-04-09T09:27:40.380Z,9.20
2023-04-09T09:30:13.013Z,9.20
2023-04-09T09:32:44.500Z,9.20
2023-04-09T09:35:16.140Z,9.20
2023-04-09T09:37:49.293Z,9.20
2023-04-09T09:40:31.293Z,9.20
2023-04-09T09:43:02.692Z,9.20
2023-04-09T09:45:35.519Z,9.20
2023-04-09T09:48:07.893Z,9.10
2023-04-09T09:50:40.450Z,9.10
2023-04-09T09:53:14.733Z,9.10
2023-04-09T09:55:52.111Z,9.10
2023-04-09T09:58:31.246Z,9.20
2023-04-09T10:01:03.681Z,9.20
2023-04-09T10:03:38.703Z,9.20
2023-04-09T10:06:10.837Z,9.20
2023-04-09T10:08:45.975Z,9.20
2023-04-09T10:11:17.432Z,9.10
2023-04-09T10:13:54.658Z,9.20
2023-04-09T10:16:26.333Z,9.20
2023-04-09T10:18:59.299Z,9.20
2023-04-09T10:21:39.877Z,9.20
2023-04-09T10:24:14.744Z,9.20
2023-04-09T10:26:47.616Z,9.20
2023-04-09T10:29:19.379Z,9.20
2023-04-09T10:31:52.600Z,9.20
2023-04-09T10:34:25.499Z,9.30
2023-04-09T10:36:59.984Z,9.30
2023-04-09T10:39:37.161Z,9.30
2023-04-09T10:42:14.757Z,9.30
2023-04-09T10:44:46.000Z,9.30
2023-04-09T10:47:35.283Z,9.30
2023-04-09T10:50:19.977Z,9.30
2023-04-09T10:52:55.343Z,9.30
2023-04-09T10:55:40.609Z,9.30
2023-04-09T10:58:13.649Z,9.30
2023-04-09T11:00:46.890Z,9.20
2023-04-09T11:03:25.102Z,9.30
2023-04-09T11:06:00.618Z,9.30
2023-04-09T11:08:35.972Z,9.30
2023-04-09T11:11:09.169Z,9.30
2023-04-09T11:13:41.941Z,9.20
2023-04-09T11:16:23.233Z,9.20
2023-04-09T11:18:57.236Z,9.30
2023-04-09T11:21:32.542Z,9.30
2023-04-09T11:24:03.294Z,9.20
2023-04-09T11:26:40.413Z,9.20
2023-04-09T11:29:11.449Z,9.20
2023-04-09T11:31:43.342Z,9.20
2023-04-09T11:34:14.539Z,9.20
2023-04-09T11:36:45.431Z,9.20
2023-04-09T11:39:16.265Z,9.20
2023-04-09T11:41:49.557Z,9.20
2023-04-09T11:44:21.010Z,9.10
2023-04-09T11:46:53.067Z,9.10
2023-04-09T11:49:25.078Z,9.10
2023-04-09T11:51:56.903Z,9.10
2023-04-09T11:54:28.137Z,9.00
2023-04-09T11:57:03.505Z,9.00
2023-04-09T11:59:34.571Z,9.00
2023-04-09T12:02:08.749Z,9.00
2023-04-09T12:04:39.915Z,9.00
2023-04-09T12:07:12.586Z,9.00
2023-04-09T12:09:51.147Z,9.00
2023-04-09T12:12:28.373Z,9.00
2023-04-09T12:15:00.313Z,9.10
2023-04-09T12:17:31.120Z,9.00
2023-04-09T12:20:03.049Z,9.00
2023-04-09T12:22:34.000Z,9.00
2023-04-09T12:25:04.812Z,9.00
2023-04-09T12:27:38.031Z,9.00
2023-04-09T12:30:10.218Z,9.00
2023-04-09T12:32:41.330Z,9.00
2023-04-09T12:35:12.814Z,8.90
2023-04-09T12:37:44.235Z,8.90
2023-04-09T12:40:16.576Z,8.90
2023-04-09T12:42:50.013Z,8.90
2023-04-09T12:45:21.684Z,8.90
2023-04-09T12:47:53.316Z,8.90
2023-04-09T12:50:24.518Z,8.90
2023-04-09T12:52:55.883Z,9.00
2023-04-09T12:55:27.370Z,9.00
2023-04-09T12:58:02.972Z,9.00
2023-04-09T13:00:34.260Z,9.00
2023-04-09T13:03:05.654Z,8.90
2023-04-09T13:05:37.493Z,8.90
2023-04-09T13:08:08.991Z,8.90
2023-04-09T13:10:39.711Z,8.90
2023-04-09T13:13:15.337Z,8.90
2023-04-09T13:15:47.365Z,8.80
2023-04-09T13:18:18.307Z,8.80
2023-04-09T13:20:49.724Z,8.80
2023-04-09T13:23:20.781Z,8.80
2023-04-09T13:25:51.563Z,8.80
2023-04-09T13:28:24.673Z,8.90
2023-04-09T13:30:55.638Z,8.80
2023-04-09T13:33:26.607Z,8.80
2023-04-09T13:35:58.552Z,8.90
2023-04-09T13:38:30.103Z,8.90
2023-04-09T13:41:01.131Z,9.00
2023-04-09T13:43:34.563Z,9.00
2023-04-09T13:46:06.503Z,9.00
2023-04-09T13:48:37.499Z,9.10
2023-04-09T13:51:09.195Z,9.10
2023-04-09T13:53:40.423Z,9.10
2023-04-09T13:56:11.970Z,9.10
2023-04-09T13:58:46.005Z,9.10
2023-04-09T14:01:17.510Z,9.10
2023-04-09T14:03:48.412Z,9.10
2023-04-09T14:06:19.731Z,9.20
2023-04-09T14:08:51.576Z,9.10
2023-04-09T14:11:23.366Z,9.10
2023-04-09T14:13:56.992Z,9.20
2023-04-09T14:16:28.928Z,9.20
2023-04-09T14:19:00.640Z,9.20
2023-04-09T14:21:31.963Z,9.20
2023-04-09T14:24:02.882Z,9.30
2023-04-09T14:26:34.179Z,9.30
2023-04-09T14:29:08.047Z,9.30
2023-04-09T14:31:39.263Z,9.30
2023-04-09T14:34:10.674Z,9.30
2023-04-09T14:36:41.549Z,9.30
2023-04-09T14:39:12.901Z,9.30
2023-04-09T14:41:43.643Z,9.30
2023-04-09T14:44:17.721Z,9.30
2023-04-09T14:46:48.829Z,9.30
2023-04-09T14:49:19.906Z,9.30
2023-04-09T14:51:51.408Z,9.30
2023-04-09T14:54:22.636Z,9.30
2023-04-09T14:56:53.917Z,9.30
2023-04-09T14:59:27.563Z,9.40
2023-04-09T15:01:58.311Z,9.40
2023-04-09T15:04:29.485Z,9.40
2023-04-09T15:07:00.931Z,9.40
2023-04-09T15:09:31.933Z,9.40
2023-04-09T15:12:03.818Z,9.40
2023-04-09T15:14:37.669Z,9.40
2023-04-09T15:17:09.252Z,9.50
2023-04-09T15:19:40.439Z,9.50
2023-04-09T15:22:12.622Z,9.60
2023-04-09T15:24:43.985Z,9.60
2023-04-09T15:27:16.730Z,9.70
2023-04-09T15:29:49.874Z,9.80
2023-04-09T15:32:21.125Z,9.70
2023-04-09T15:34:52.301Z,9.80
2023-04-09T15:37:23.307Z,9.90
2023-04-09T15:39:54.485Z,9.90
2023-04-09T15:42:25.449Z,9.80
2023-04-09T15:44:59.540Z,9.90
2023-04-09T15:47:32.684Z,9.80
2023-04-09T15:50:04.649Z,9.80
2023-04-09T15:52:35.688Z,9.90
2023-04-09T15:55:07.249Z,9.90
2023-04-09T15:57:39.301Z,9.90
2023-04-09T16:00:12.983Z,9.90
2023-04-09T16:02:43.959Z,9.90
2023-04-09T16:05:15.031Z,9.90
2023-04-09T16:07:46.105Z,9.90
2023-04-09T16:10:17.148Z,10.00
2023-04-09T16:12:48.476Z,9.90
2023-04-09T16:15:20.950Z,9.90
2023-04-09T16:17:52.179Z,9.90
2023-04-09T16:20:23.602Z,10.00
2023-04-09T16:22:54.976Z,10.00
2023-04-09T16:25:26.588Z,10.10
2023-04-09T16:27:57.556Z,10.00
2023-04-09T16:30:31.683Z,10.00
2023-04-09T16:33:02.907Z,10.00
2023-04-09T16:35:33.773Z,10.00
2023-04-09T16:38:04.890Z,10.00
2023-04-09T16:40:36.651Z,10.00
2023-04-09T16:43:08.098Z,10.00
2023-04-09T16:45:41.417Z,10.00
2023-04-09T16:48:14.647Z,10.00
2023-04-09T16:50:45.835Z,10.00
2023-04-09T16:53:17.251Z,10.00
2023-04-09T16:55:48.379Z,10.10
2023-04-09T16:58:19.536Z,10.10
2023-04-09T17:00:53.084Z,10.20
2023-04-09T17:03:24.655Z,10.20
2023-04-09T17:05:55.868Z,10.20
2023-04-09T17:08:27.098Z,10.30
2023-04-09T17:11:03.192Z,10.30
2023-04-09T17:13:35.877Z,10.30
2023-04-09T17:16:10.183Z,10.30
2023-04-09T17:18:42.237Z,10.30
2023-04-09T17:21:14.159Z,10.30
2023-04-09T17:23:46.506Z,10.40
2023-04-09T17:26:18.752Z,10.40
2023-04-09T17:28:49.429Z,10.40
2023-04-09T17:31:24.755Z,10.40
2023-04-09T17:33:55.899Z,10.40
2023-04-09T17:36:27.352Z,10.50
2023-04-09T17:38:58.100Z,10.50
2023-04-09T17:41:29.453Z,10.50
2023-04-09T17:44:00.961Z,10.60
2023-04-09T17:46:34.453Z,10.70
2023-04-09T17:49:05.220Z,10.90
2023-04-09T17:51:36.339Z,10.90
2023-04-09T17:54:07.477Z,10.90
2023-04-09T17:56:39.778Z,11.00
2023-04-09T17:59:10.573Z,11.00
2023-04-09T18:01:43.094Z,10.90
2023-04-09T18:04:14.208Z,11.00
2023-04-09T18:06:46.074Z,11.00
2023-04-09T18:09:16.765Z,11.10
2023-04-09T18:11:48.054Z,11.20
2023-04-09T18:14:19.703Z,11.20
2023-04-09T18:16:52.144Z,11.20
2023-04-09T18:19:23.624Z,11.20
2023-04-09T18:21:54.591Z,11.20
2023-04-09T18:24:27.047Z,11.20
2023-04-09T18:26:58.640Z,11.20
2023-04-09T18:29:29.591Z,11.30
2023-04-09T18:32:02.244Z,11.30
2023-04-09T18:34:33.209Z,11.30
2023-04-09T18:37:04.416Z,11.30
2023-04-09T18:39:37.165Z,11.30
2023-04-09T18:42:08.042Z,11.40
2023-04-09T18:44:39.036Z,11.20
2023-04-09T18:47:12.022Z,11.20
2023-04-09T18:49:43.130Z,11.30
2023-04-09T18:52:14.240Z,11.50
2023-04-09T18:54:46.072Z,11.50
2023-04-09T18:57:17.635Z,11.30
2023-04-09T18:59:49.910Z,11.20
2023-04-09T19:02:22.695Z,11.20
2023-04-09T19:04:53.589Z,11.10
2023-04-09T19:07:25.258Z,11.20
2023-04-09T19:09:55.908Z,11.10
2023-04-09T19:12:27.816Z,11.10
2023-04-09T19:15:01.041Z,11.30
2023-04-09T19:17:34.271Z,11.20
2023-04-09T19:20:05.321Z,11.20
2023-04-09T19:22:36.037Z,11.30
2023-04-09T19:25:08.192Z,11.40
2023-04-09T19:27:38.987Z,11.30
2023-04-09T19:30:10.845Z,11.30
2023-04-09T19:32:43.903Z,11.30
2023-04-09T19:35:14.605Z,11.30
2023-04-09T19:37:45.772Z,11.20
2023-04-09T19:40:18.997Z,11.20
2023-04-09T19:42:50.218Z,11.30
2023-04-09T19:45:21.829Z,11.40
2023-04-09T19:47:55.796Z,11.50
2023-04-09T19:50:27.171Z,11.50
2023-04-09T19:52:59.340Z,11.60
2023-04-09T19:55:30.760Z,11.30
2023-04-09T19:58:01.762Z,11.30
2023-04-09T20:00:33.625Z,11.30
2023-04-09T20:03:08.217Z,11.20
2023-04-09T20:05:40.212Z,11.20
2023-04-09T20:08:14.340Z,11.20
2023-04-09T20:10:48.120Z,11.30
2023-04-09T20:13:19.576Z,11.50
2023-04-09T20:15:51.039Z,11.50
2023-04-09T20:18:23.754Z,11.50
2023-04-09T20:20:55.203Z,11.40
2023-04-09T20:23:27.143Z,11.40
2023-04-09T20:25:58.054Z,11.30
2023-04-09T20:28:30.665Z,11.40
2023-04-09T20:31:02.154Z,11.40
2023-04-09T20:33:35.401Z,11.50
2023-04-09T20:36:06.311Z,11.60
2023-04-09T20:38:38.490Z,11.60
2023-04-09T20:41:10.651Z,11.60
2023-04-09T20:43:42.154Z,11.80
2023-04-09T20:46:13.674Z,11.80
2023-04-09T20:48:48.363Z,11.90
2023-04-09T20:51:19.493Z,12.00
2023-04-09T20:53:50.912Z,12.00
2023-04-09T20:56:22.340Z,12.20
2023-04-09T20:58:54.104Z,12.40
2023-04-09T21:01:28.077Z,12.40
2023-04-09T21:04:01.945Z,12.40
2023-04-09T21:06:33.393Z,12.30
2023-04-09T21:09:04.778Z,12.40
2023-04-09T21:11:36.150Z,12.30
2023-04-09T21:14:08.044Z,12.10
2023-04-09T21:16:39.538Z,11.90
2023-04-09T21:19:12.309Z,11.90
2023-04-09T21:21:44.419Z,12.10
2023-04-09T21:24:15.170Z,12.20
2023-04-09T21:26:51.570Z,12.40
2023-04-09T21:29:23.907Z,12.40
2023-04-09T21:31:54.859Z,12.20
2023-04-09T21:34:27.990Z,12.20
2023-04-09T21:36:59.369Z,12.20
2023-04-09T21:39:30.576Z,12.30
2023-04-09T21:42:01.947Z,12.30
2023-04-09T21:44:33.305Z,12.20
2023-04-09T21:47:09.209Z,12.10
2023-04-09T21:49:44.104Z,12.00
2023-04-09T21:52:16.345Z,12.00
2023-04-09T21:54:48.257Z,12.10
2023-04-09T21:57:20.116Z,11.90
2023-04-09T21:59:51.424Z,11.90
2023-04-09T22:02:23.111Z,12.10
2023-04-09T22:04:57.250Z,12.10
2023-04-09T22:07:28.830Z,12.00
2023-04-09T22:10:00.915Z,12.10
2023-04-09T22:12:31.663Z,12.10
2023-04-09T22:15:03.845Z,12.30
2023-04-09T22:17:35.305Z,12.10
2023-04-09T22:20:10.590Z,12.00
2023-04-09T22:22:43.423Z,12.10
2023-04-09T22:25:15.887Z,12.40
2023-04-09T22:27:47.337Z,12.40
2023-04-09T22:30:18.758Z,12.40
2023-04-09T22:32:50.225Z,12.60
2023-04-09T22:35:24.447Z,12.60
2023-04-09T22:37:55.810Z,12.60
2023-04-09T22:40:27.056Z,12.50
2023-04-09T22:42:58.254Z,12.70
2023-04-09T22:45:31.664Z,12.70
2023-04-09T22:48:02.931Z,12.90
2023-04-09T22:50:36.831Z,12.80
2023-04-09T22:53:08.678Z,12.50
2023-04-09T22:55:39.941Z,12.60
2023-04-09T22:58:11.197Z,12.80
2023-04-09T23:00:42.759Z,12.80
2023-04-09T23:03:14.488Z,12.70
2023-04-09T23:05:48.450Z,12.80
2023-04-09T23:08:20.044Z,12.70
2023-04-09T23:10:51.453Z,12.70
2023-04-09T23:13:23.300Z,12.60
2023-04-09T23:15:54.782Z,12.60
2023-04-09T23:18:26.302Z,12.60
2023-04-09T23:20:59.098Z,12.70
2023-04-09T23:23:29.900Z,12.60
2023-04-09T23:26:01.142Z,12.70
2023-04-09T23:28:34.045Z,12.70
2023-04-09T23:31:05.328Z,12.90
2023-04-09T23:33:36.412Z,13.00
2023-04-09T23:36:10.128Z,13.20
2023-04-09T23:38:41.809Z,13.10
2023-04-09T23:41:12.834Z,12.90
2023-04-09T23:43:44.294Z,12.80
2023-04-09T23:46:15.940Z,12.70
2023-04-09T23:48:46.710Z,12.80
2023-04-09T23:51:24.483Z,12.70
2023-04-09T23:53:56.306Z,12.70
2023-04-09T23:56:28.748Z,12.80
2023-04-09T23:58:59.993Z,12.80
